sensor_id;sensor_type;location;lat;lon;timestamp;P1;durP1;ratioP1;P2;durP2;ratioP2
36423;SDS011;22458;45.328;9.514;2022-11-15T00:00:29;18.85;;;12.68;;
36423;SDS011;22458;45.328;9.514;2022-11-15T00:03:14;18.88;;;12.77;;
36423;SDS011;22458;45.328;9.514;2022-11-15T00:06:05;19.42;;;13.52;;
36423;SDS011;22458;45.328;9.514;2022-11-15T00:08:49;18.02;;;12.32;;
36423;SDS011;22458;45.328;9.514;2022-11-15T00:11:33;17.80;;;12.70;;
36423;SDS011;22458;45.328;9.514;2022-11-15T00:14:17;16.50;;;11.50;;
36423;SDS011;22458;45.328;9.514;2022-11-15T00:17:01;20.27;;;13.65;;
36423;SDS011;22458;45.328;9.514;2022-11-15T00:19:45;18.55;;;12.85;;
36423;SDS011;22458;45.328;9.514;2022-11-15T00:22:33;19.52;;;12.63;;
36423;SDS011;22458;45.328;9.514;2022-11-15T00:25:17;18.60;;;13.25;;
36423;SDS011;22458;45.328;9.514;2022-11-15T00:28:01;18.25;;;13.25;;
36423;SDS011;22458;45.328;9.514;2022-11-15T00:30:46;18.50;;;11.75;;
36423;SDS011;22458;45.328;9.514;2022-11-15T00:33:30;17.67;;;12.55;;
36423;SDS011;22458;45.328;9.514;2022-11-15T00:36:15;19.25;;;12.95;;
36423;SDS011;22458;45.328;9.514;2022-11-15T00:38:59;18.35;;;11.88;;
36423;SDS011;22458;45.328;9.514;2022-11-15T00:41:44;19.20;;;11.93;;
36423;SDS011;22458;45.328;9.514;2022-11-15T00:44:28;14.82;;;10.95;;
36423;SDS011;22458;45.328;9.514;2022-11-15T00:47:12;18.88;;;12.63;;
36423;SDS011;22458;45.328;9.514;2022-11-15T00:49:57;16.27;;;11.90;;
36423;SDS011;22458;45.328;9.514;2022-11-15T00:52:42;19.63;;;13.50;;
36423;SDS011;22458;45.328;9.514;2022-11-15T00:55:26;17.25;;;12.48;;
36423;SDS011;22458;45.328;9.514;2022-11-15T00:58:11;15.93;;;11.40;;
36423;SDS011;22458;45.328;9.514;2022-11-15T01:00:55;19.90;;;11.88;;
36423;SDS011;22458;45.328;9.514;2022-11-15T01:03:40;17.73;;;11.55;;
36423;SDS011;22458;45.328;9.514;2022-11-15T01:06:24;17.08;;;11.70;;
36423;SDS011;22458;45.328;9.514;2022-11-15T01:09:08;16.40;;;10.95;;
36423;SDS011;22458;45.328;9.514;2022-11-15T01:11:53;17.85;;;11.60;;
36423;SDS011;22458;45.328;9.514;2022-11-15T01:14:37;18.02;;;11.63;;
36423;SDS011;22458;45.328;9.514;2022-11-15T01:17:21;17.23;;;11.82;;
36423;SDS011;22458;45.328;9.514;2022-11-15T01:20:05;17.13;;;11.23;;
36423;SDS011;22458;45.328;9.514;2022-11-15T01:22:50;17.88;;;11.52;;
36423;SDS011;22458;45.328;9.514;2022-11-15T01:25:34;18.30;;;10.95;;
36423;SDS011;22458;45.328;9.514;2022-11-15T01:28:18;16.88;;;11.35;;
36423;SDS011;22458;45.328;9.514;2022-11-15T01:31:03;17.63;;;11.75;;
36423;SDS011;22458;45.328;9.514;2022-11-15T01:33:49;16.73;;;11.65;;
36423;SDS011;22458;45.328;9.514;2022-11-15T01:36:33;14.68;;;10.40;;
36423;SDS011;22458;45.328;9.514;2022-11-15T01:39:17;14.90;;;10.90;;
36423;SDS011;22458;45.328;9.514;2022-11-15T01:42:02;15.68;;;11.70;;
36423;SDS011;22458;45.328;9.514;2022-11-15T01:44:49;13.27;;;10.52;;
36423;SDS011;22458;45.328;9.514;2022-11-15T01:47:40;11.93;;;9.60;;
36423;SDS011;22458;45.328;9.514;2022-11-15T01:50:32;15.68;;;9.43;;
36423;SDS011;22458;45.328;9.514;2022-11-15T01:53:17;15.63;;;9.88;;
36423;SDS011;22458;45.328;9.514;2022-11-15T01:56:06;12.93;;;9.55;;
36423;SDS011;22458;45.328;9.514;2022-11-15T01:58:55;15.68;;;10.88;;
36423;SDS011;22458;45.328;9.514;2022-11-15T02:01:40;15.48;;;10.73;;
36423;SDS011;22458;45.328;9.514;2022-11-15T02:04:31;13.80;;;9.73;;
36423;SDS011;22458;45.328;9.514;2022-11-15T02:07:18;13.77;;;9.70;;
36423;SDS011;22458;45.328;9.514;2022-11-15T02:10:10;12.98;;;9.75;;
36423;SDS011;22458;45.328;9.514;2022-11-15T02:13:01;13.00;;;9.27;;
36423;SDS011;22458;45.328;9.514;2022-11-15T02:15:58;15.30;;;9.20;;
36423;SDS011;22458;45.328;9.514;2022-11-15T02:18:55;14.40;;;9.60;;
36423;SDS011;22458;45.328;9.514;2022-11-15T02:21:50;13.40;;;9.85;;
36423;SDS011;22458;45.328;9.514;2022-11-15T02:25:03;11.82;;;9.82;;
36423;SDS011;22458;45.328;9.514;2022-11-15T02:28:10;13.10;;;9.30;;
36423;SDS011;22458;45.328;9.514;2022-11-15T02:37:11;13.48;;;9.45;;
36423;SDS011;22458;45.328;9.514;2022-11-15T02:43:15;13.20;;;9.05;;
36423;SDS011;22458;45.328;9.514;2022-11-15T02:46:31;11.65;;;8.73;;
36423;SDS011;22458;45.328;9.514;2022-11-15T02:49:57;11.85;;;9.20;;
36423;SDS011;22458;45.328;9.514;2022-11-15T02:52:45;14.70;;;9.68;;
36423;SDS011;22458;45.328;9.514;2022-11-15T02:55:31;11.43;;;8.35;;
36423;SDS011;22458;45.328;9.514;2022-11-15T03:02:01;11.93;;;8.90;;
36423;SDS011;22458;45.328;9.514;2022-11-15T03:05:22;11.75;;;9.48;;
36423;SDS011;22458;45.328;9.514;2022-11-15T03:11:21;13.57;;;8.93;;
36423;SDS011;22458;45.328;9.514;2022-11-15T03:17:18;13.18;;;8.93;;
36423;SDS011;22458;45.328;9.514;2022-11-15T03:20:09;12.35;;;8.98;;
36423;SDS011;22458;45.328;9.514;2022-11-15T03:23:00;11.90;;;9.15;;
36423;SDS011;22458;45.328;9.514;2022-11-15T03:25:48;11.80;;;8.48;;
36423;SDS011;22458;45.328;9.514;2022-11-15T03:31:27;13.77;;;9.20;;
36423;SDS011;22458;45.328;9.514;2022-11-15T03:37:17;12.00;;;9.35;;
36423;SDS011;22458;45.328;9.514;2022-11-15T03:40:05;9.93;;;8.43;;
36423;SDS011;22458;45.328;9.514;2022-11-15T03:43:02;11.73;;;8.60;;
36423;SDS011;22458;45.328;9.514;2022-11-15T03:45:56;13.95;;;9.73;;
36423;SDS011;22458;45.328;9.514;2022-11-15T03:48:52;10.18;;;7.85;;
36423;SDS011;22458;45.328;9.514;2022-11-15T03:51:42;11.98;;;9.00;;
36423;SDS011;22458;45.328;9.514;2022-11-15T03:54:26;11.52;;;8.73;;
36423;SDS011;22458;45.328;9.514;2022-11-15T03:57:10;10.52;;;8.32;;
36423;SDS011;22458;45.328;9.514;2022-11-15T03:59:57;13.00;;;9.02;;
36423;SDS011;22458;45.328;9.514;2022-11-15T04:02:44;14.50;;;9.35;;
36423;SDS011;22458;45.328;9.514;2022-11-15T04:05:28;11.27;;;8.55;;
36423;SDS011;22458;45.328;9.514;2022-11-15T04:08:12;13.50;;;9.38;;
36423;SDS011;22458;45.328;9.514;2022-11-15T04:10:56;13.70;;;9.05;;
36423;SDS011;22458;45.328;9.514;2022-11-15T04:13:40;15.00;;;9.13;;
36423;SDS011;22458;45.328;9.514;2022-11-15T04:16:24;14.13;;;8.93;;
36423;SDS011;22458;45.328;9.514;2022-11-15T04:19:08;13.63;;;9.75;;
36423;SDS011;22458;45.328;9.514;2022-11-15T04:22:11;13.45;;;8.73;;
36423;SDS011;22458;45.328;9.514;2022-11-15T04:25:14;15.18;;;9.90;;
36423;SDS011;22458;45.328;9.514;2022-11-15T04:27:58;14.93;;;10.55;;
36423;SDS011;22458;45.328;9.514;2022-11-15T04:30:43;14.60;;;9.38;;
36423;SDS011;22458;45.328;9.514;2022-11-15T04:33:27;14.48;;;9.45;;
36423;SDS011;22458;45.328;9.514;2022-11-15T04:36:11;15.48;;;10.27;;
36423;SDS011;22458;45.328;9.514;2022-11-15T04:39:14;17.92;;;11.00;;
36423;SDS011;22458;45.328;9.514;2022-11-15T04:41:58;15.38;;;10.18;;
36423;SDS011;22458;45.328;9.514;2022-11-15T04:44:42;15.40;;;10.05;;
36423;SDS011;22458;45.328;9.514;2022-11-15T04:47:26;16.98;;;10.68;;
36423;SDS011;22458;45.328;9.514;2022-11-15T04:50:12;18.50;;;10.77;;
36423;SDS011;22458;45.328;9.514;2022-11-15T04:52:58;20.80;;;12.70;;
36423;SDS011;22458;45.328;9.514;2022-11-15T04:55:45;22.17;;;12.35;;
36423;SDS011;22458;45.328;9.514;2022-11-15T04:58:30;17.70;;;10.52;;
36423;SDS011;22458;45.328;9.514;2022-11-15T05:01:14;18.15;;;11.55;;
36423;SDS011;22458;45.328;9.514;2022-11-15T05:03:59;21.42;;;11.68;;
36423;SDS011;22458;45.328;9.514;2022-11-15T05:07:02;21.08;;;11.73;;
36423;SDS011;22458;45.328;9.514;2022-11-15T05:09:47;20.73;;;12.40;;
36423;SDS011;22458;45.328;9.514;2022-11-15T05:12:31;21.42;;;11.50;;
36423;SDS011;22458;45.328;9.514;2022-11-15T05:15:15;21.83;;;12.02;;
36423;SDS011;22458;45.328;9.514;2022-11-15T05:18:00;21.77;;;12.43;;
36423;SDS011;22458;45.328;9.514;2022-11-15T05:20:44;26.55;;;13.48;;
36423;SDS011;22458;45.328;9.514;2022-11-15T05:23:28;20.80;;;11.32;;
36423;SDS011;22458;45.328;9.514;2022-11-15T05:26:12;20.75;;;11.88;;
36423;SDS011;22458;45.328;9.514;2022-11-15T05:28:59;25.85;;;12.65;;
36423;SDS011;22458;45.328;9.514;2022-11-15T05:31:43;22.80;;;13.18;;
36423;SDS011;22458;45.328;9.514;2022-11-15T05:34:27;21.23;;;11.95;;
36423;SDS011;22458;45.328;9.514;2022-11-15T05:37:12;19.52;;;11.35;;
36423;SDS011;22458;45.328;9.514;2022-11-15T05:39:58;23.42;;;12.88;;
36423;SDS011;22458;45.328;9.514;2022-11-15T05:42:42;19.95;;;11.82;;
36423;SDS011;22458;45.328;9.514;2022-11-15T05:45:26;23.27;;;13.13;;
36423;SDS011;22458;45.328;9.514;2022-11-15T05:48:11;20.35;;;12.32;;
36423;SDS011;22458;45.328;9.514;2022-11-15T05:50:56;19.85;;;11.70;;
36423;SDS011;22458;45.328;9.514;2022-11-15T05:53:41;21.90;;;11.15;;
36423;SDS011;22458;45.328;9.514;2022-11-15T05:56:26;20.67;;;11.70;;
36423;SDS011;22458;45.328;9.514;2022-11-15T05:59:11;18.40;;;11.75;;
36423;SDS011;22458;45.328;9.514;2022-11-15T06:01:56;20.45;;;11.95;;
36423;SDS011;22458;45.328;9.514;2022-11-15T06:04:40;21.48;;;13.18;;
36423;SDS011;22458;45.328;9.514;2022-11-15T06:07:25;20.33;;;12.10;;
36423;SDS011;22458;45.328;9.514;2022-11-15T06:10:09;21.98;;;12.85;;
36423;SDS011;22458;45.328;9.514;2022-11-15T06:12:57;18.70;;;11.20;;
36423;SDS011;22458;45.328;9.514;2022-11-15T06:15:42;20.40;;;12.10;;
36423;SDS011;22458;45.328;9.514;2022-11-15T06:18:26;19.25;;;10.93;;
36423;SDS011;22458;45.328;9.514;2022-11-15T06:21:11;20.35;;;12.32;;
36423;SDS011;22458;45.328;9.514;2022-11-15T06:23:55;20.73;;;12.13;;
36423;SDS011;22458;45.328;9.514;2022-11-15T06:26:39;20.33;;;12.77;;
36423;SDS011;22458;45.328;9.514;2022-11-15T06:29:23;20.40;;;12.13;;
36423;SDS011;22458;45.328;9.514;2022-11-15T06:32:07;21.63;;;13.15;;
36423;SDS011;22458;45.328;9.514;2022-11-15T06:34:51;23.80;;;13.23;;
36423;SDS011;22458;45.328;9.514;2022-11-15T06:37:35;21.88;;;12.68;;
36423;SDS011;22458;45.328;9.514;2022-11-15T06:40:20;22.38;;;12.50;;
36423;SDS011;22458;45.328;9.514;2022-11-15T06:43:04;22.42;;;13.93;;
36423;SDS011;22458;45.328;9.514;2022-11-15T06:45:49;21.10;;;13.13;;
36423;SDS011;22458;45.328;9.514;2022-11-15T06:48:34;20.13;;;12.05;;
36423;SDS011;22458;45.328;9.514;2022-11-15T06:51:19;22.00;;;13.57;;
36423;SDS011;22458;45.328;9.514;2022-11-15T06:54:04;22.85;;;13.38;;
36423;SDS011;22458;45.328;9.514;2022-11-15T06:56:48;22.05;;;13.40;;
36423;SDS011;22458;45.328;9.514;2022-11-15T06:59:32;22.77;;;12.40;;
36423;SDS011;22458;45.328;9.514;2022-11-15T07:02:16;21.05;;;12.40;;
36423;SDS011;22458;45.328;9.514;2022-11-15T07:05:00;22.77;;;12.52;;
36423;SDS011;22458;45.328;9.514;2022-11-15T07:07:50;25.08;;;13.77;;
36423;SDS011;22458;45.328;9.514;2022-11-15T07:10:36;22.77;;;13.88;;
36423;SDS011;22458;45.328;9.514;2022-11-15T07:13:23;22.55;;;12.98;;
36423;SDS011;22458;45.328;9.514;2022-11-15T07:16:09;19.73;;;13.23;;
36423;SDS011;22458;45.328;9.514;2022-11-15T07:18:53;22.88;;;13.95;;
36423;SDS011;22458;45.328;9.514;2022-11-15T07:21:37;18.33;;;12.43;;
36423;SDS011;22458;45.328;9.514;2022-11-15T07:24:21;17.85;;;12.40;;
36423;SDS011;22458;45.328;9.514;2022-11-15T07:27:05;20.65;;;12.43;;
36423;SDS011;22458;45.328;9.514;2022-11-15T07:29:49;20.13;;;12.35;;
36423;SDS011;22458;45.328;9.514;2022-11-15T07:32:34;22.63;;;12.75;;
36423;SDS011;22458;45.328;9.514;2022-11-15T07:35:18;21.17;;;12.48;;
36423;SDS011;22458;45.328;9.514;2022-11-15T07:38:03;18.48;;;11.55;;
36423;SDS011;22458;45.328;9.514;2022-11-15T07:40:47;20.85;;;12.75;;
36423;SDS011;22458;45.328;9.514;2022-11-15T07:43:39;20.20;;;12.85;;
36423;SDS011;22458;45.328;9.514;2022-11-15T07:46:23;19.42;;;12.45;;
36423;SDS011;22458;45.328;9.514;2022-11-15T07:49:07;20.23;;;12.15;;
36423;SDS011;22458;45.328;9.514;2022-11-15T07:51:51;22.60;;;13.02;;
36423;SDS011;22458;45.328;9.514;2022-11-15T07:54:35;21.77;;;13.02;;
36423;SDS011;22458;45.328;9.514;2022-11-15T07:57:19;19.58;;;12.80;;
36423;SDS011;22458;45.328;9.514;2022-11-15T08:00:04;20.73;;;13.20;;
36423;SDS011;22458;45.328;9.514;2022-11-15T08:02:49;22.33;;;14.10;;
36423;SDS011;22458;45.328;9.514;2022-11-15T08:05:34;23.25;;;13.23;;
36423;SDS011;22458;45.328;9.514;2022-11-15T08:08:19;18.45;;;12.15;;
36423;SDS011;22458;45.328;9.514;2022-11-15T08:11:03;22.05;;;13.70;;
36423;SDS011;22458;45.328;9.514;2022-11-15T08:13:47;20.92;;;13.25;;
36423;SDS011;22458;45.328;9.514;2022-11-15T08:16:31;18.80;;;12.52;;
36423;SDS011;22458;45.328;9.514;2022-11-15T08:19:16;16.33;;;11.90;;
36423;SDS011;22458;45.328;9.514;2022-11-15T08:22:00;17.27;;;11.70;;
36423;SDS011;22458;45.328;9.514;2022-11-15T08:24:44;16.00;;;10.98;;
36423;SDS011;22458;45.328;9.514;2022-11-15T08:27:28;17.77;;;11.88;;
36423;SDS011;22458;45.328;9.514;2022-11-15T08:30:12;16.33;;;10.75;;
36423;SDS011;22458;45.328;9.514;2022-11-15T08:32:57;16.88;;;11.55;;
36423;SDS011;22458;45.328;9.514;2022-11-15T08:35:42;17.98;;;11.40;;
36423;SDS011;22458;45.328;9.514;2022-11-15T08:38:28;19.85;;;12.32;;
36423;SDS011;22458;45.328;9.514;2022-11-15T08:41:13;17.95;;;11.82;;
36423;SDS011;22458;45.328;9.514;2022-11-15T08:44:07;15.20;;;10.75;;
36423;SDS011;22458;45.328;9.514;2022-11-15T08:46:51;16.50;;;10.88;;
36423;SDS011;22458;45.328;9.514;2022-11-15T08:49:35;16.17;;;10.88;;
36423;SDS011;22458;45.328;9.514;2022-11-15T08:52:19;16.45;;;10.55;;
36423;SDS011;22458;45.328;9.514;2022-11-15T08:55:04;15.57;;;11.07;;
36423;SDS011;22458;45.328;9.514;2022-11-15T08:57:49;18.90;;;11.90;;
36423;SDS011;22458;45.328;9.514;2022-11-15T09:00:33;16.55;;;10.57;;
36423;SDS011;22458;45.328;9.514;2022-11-15T09:03:17;17.80;;;11.80;;
36423;SDS011;22458;45.328;9.514;2022-11-15T09:06:01;17.73;;;10.73;;
36423;SDS011;22458;45.328;9.514;2022-11-15T09:08:46;17.80;;;11.20;;
36423;SDS011;22458;45.328;9.514;2022-11-15T09:11:31;16.95;;;11.25;;
36423;SDS011;22458;45.328;9.514;2022-11-15T09:14:16;13.20;;;10.07;;
36423;SDS011;22458;45.328;9.514;2022-11-15T09:17:00;14.63;;;10.52;;
36423;SDS011;22458;45.328;9.514;2022-11-15T09:19:45;15.25;;;10.15;;
36423;SDS011;22458;45.328;9.514;2022-11-15T09:22:29;15.05;;;10.88;;
36423;SDS011;22458;45.328;9.514;2022-11-15T09:25:13;16.73;;;11.13;;
36423;SDS011;22458;45.328;9.514;2022-11-15T09:27:58;12.77;;;10.02;;
36423;SDS011;22458;45.328;9.514;2022-11-15T09:30:42;17.00;;;11.18;;
36423;SDS011;22458;45.328;9.514;2022-11-15T09:33:26;16.80;;;11.40;;
36423;SDS011;22458;45.328;9.514;2022-11-15T09:36:11;14.73;;;11.23;;
36423;SDS011;22458;45.328;9.514;2022-11-15T09:38:57;17.17;;;10.98;;
36423;SDS011;22458;45.328;9.514;2022-11-15T09:44:54;14.73;;;9.98;;
36423;SDS011;22458;45.328;9.514;2022-11-15T09:48:03;14.00;;;10.83;;
36423;SDS011;22458;45.328;9.514;2022-11-15T09:51:36;15.73;;;10.90;;
36423;SDS011;22458;45.328;9.514;2022-11-15T09:54:16;17.95;;;11.25;;
36423;SDS011;22458;45.328;9.514;2022-11-15T09:57:06;15.00;;;11.02;;
36423;SDS011;22458;45.328;9.514;2022-11-15T10:05:12;16.73;;;11.63;;
36423;SDS011;22458;45.328;9.514;2022-11-15T10:07:55;14.68;;;10.90;;
36423;SDS011;22458;45.328;9.514;2022-11-15T10:10:36;15.27;;;10.87;;
36423;SDS011;22458;45.328;9.514;2022-11-15T10:13:11;14.52;;;10.60;;
36423;SDS011;22458;45.328;9.514;2022-11-15T10:15:49;18.85;;;11.55;;
36423;SDS011;22458;45.328;9.514;2022-11-15T10:18:18;15.73;;;10.77;;
36423;SDS011;22458;45.328;9.514;2022-11-15T10:21:00;14.13;;;10.47;;
36423;SDS011;22458;45.328;9.514;2022-11-15T10:23:38;16.25;;;11.10;;
36423;SDS011;22458;45.328;9.514;2022-11-15T10:26:04;14.65;;;10.50;;
36423;SDS011;22458;45.328;9.514;2022-11-15T10:28:36;15.05;;;10.98;;
36423;SDS011;22458;45.328;9.514;2022-11-15T10:31:02;14.38;;;10.65;;
36423;SDS011;22458;45.328;9.514;2022-11-15T10:38:55;13.40;;;9.68;;
36423;SDS011;22458;45.328;9.514;2022-11-15T10:44:01;12.35;;;10.10;;
36423;SDS011;22458;45.328;9.514;2022-11-15T10:46:34;13.35;;;9.65;;
36423;SDS011;22458;45.328;9.514;2022-11-15T10:49:23;16.23;;;10.65;;
36423;SDS011;22458;45.328;9.514;2022-11-15T10:51:54;20.52;;;10.77;;
36423;SDS011;22458;45.328;9.514;2022-11-15T10:54:37;13.55;;;10.48;;
36423;SDS011;22458;45.328;9.514;2022-11-15T10:57:14;15.45;;;10.52;;
36423;SDS011;22458;45.328;9.514;2022-11-15T10:59:53;13.45;;;10.70;;
36423;SDS011;22458;45.328;9.514;2022-11-15T11:02:25;14.57;;;9.30;;
36423;SDS011;22458;45.328;9.514;2022-11-15T11:05:03;14.20;;;10.18;;
36423;SDS011;22458;45.328;9.514;2022-11-15T11:07:48;15.07;;;10.07;;
36423;SDS011;22458;45.328;9.514;2022-11-15T11:10:54;14.05;;;10.38;;
36423;SDS011;22458;45.328;9.514;2022-11-15T11:13:24;13.63;;;9.93;;
36423;SDS011;22458;45.328;9.514;2022-11-15T11:27:13;14.40;;;11.10;;
36423;SDS011;22458;45.328;9.514;2022-11-15T11:29:49;12.35;;;10.48;;
36423;SDS011;22458;45.328;9.514;2022-11-15T11:35:08;14.30;;;10.40;;
36423;SDS011;22458;45.328;9.514;2022-11-15T11:37:40;15.52;;;10.13;;
36423;SDS011;22458;45.328;9.514;2022-11-15T11:49:02;15.68;;;11.77;;
36423;SDS011;22458;45.328;9.514;2022-11-15T11:51:27;13.73;;;10.23;;
36423;SDS011;22458;45.328;9.514;2022-11-15T11:54:03;15.60;;;10.25;;
36423;SDS011;22458;45.328;9.514;2022-11-15T11:56:50;13.75;;;9.88;;
36423;SDS011;22458;45.328;9.514;2022-11-15T11:59:39;13.23;;;10.05;;
36423;SDS011;22458;45.328;9.514;2022-11-15T12:05:32;13.18;;;10.73;;
36423;SDS011;22458;45.328;9.514;2022-11-15T12:11:15;11.82;;;9.70;;
36423;SDS011;22458;45.328;9.514;2022-11-15T12:13:48;14.75;;;10.57;;
36423;SDS011;22458;45.328;9.514;2022-11-15T12:16:28;14.80;;;10.18;;
36423;SDS011;22458;45.328;9.514;2022-11-15T12:18:56;16.15;;;11.70;;
36423;SDS011;22458;45.328;9.514;2022-11-15T12:24:08;14.52;;;11.65;;
36423;SDS011;22458;45.328;9.514;2022-11-15T12:26:41;15.70;;;11.65;;
36423;SDS011;22458;45.328;9.514;2022-11-15T12:29:38;12.07;;;10.55;;
36423;SDS011;22458;45.328;9.514;2022-11-15T12:32:14;13.80;;;10.90;;
36423;SDS011;22458;45.328;9.514;2022-11-15T12:34:54;14.13;;;10.90;;
36423;SDS011;22458;45.328;9.514;2022-11-15T12:40:16;12.02;;;9.38;;
36423;SDS011;22458;45.328;9.514;2022-11-15T12:45:34;11.80;;;8.80;;
36423;SDS011;22458;45.328;9.514;2022-11-15T13:06:47;12.80;;;10.20;;
36423;SDS011;22458;45.328;9.514;2022-11-15T13:12:00;13.55;;;10.65;;
36423;SDS011;22458;45.328;9.514;2022-11-15T13:20:32;16.65;;;12.15;;
36423;SDS011;22458;45.328;9.514;2022-11-15T13:30:48;16.80;;;11.98;;
36423;SDS011;22458;45.328;9.514;2022-11-15T13:33:33;16.45;;;12.38;;
36423;SDS011;22458;45.328;9.514;2022-11-15T13:36:06;15.82;;;12.15;;
36423;SDS011;22458;45.328;9.514;2022-11-15T13:38:58;15.35;;;12.32;;
36423;SDS011;22458;45.328;9.514;2022-11-15T13:41:25;14.27;;;11.88;;
36423;SDS011;22458;45.328;9.514;2022-11-15T13:43:53;14.60;;;11.65;;
36423;SDS011;22458;45.328;9.514;2022-11-15T13:46:30;14.73;;;11.23;;
36423;SDS011;22458;45.328;9.514;2022-11-15T13:48:59;14.02;;;11.38;;
36423;SDS011;22458;45.328;9.514;2022-11-15T13:54:20;10.33;;;8.93;;
36423;SDS011;22458;45.328;9.514;2022-11-15T13:57:04;10.55;;;8.50;;
36423;SDS011;22458;45.328;9.514;2022-11-15T13:59:44;10.20;;;8.20;;
36423;SDS011;22458;45.328;9.514;2022-11-15T14:02:14;10.82;;;8.60;;
36423;SDS011;22458;45.328;9.514;2022-11-15T14:04:53;8.95;;;7.82;;
36423;SDS011;22458;45.328;9.514;2022-11-15T14:07:22;11.10;;;8.52;;
36423;SDS011;22458;45.328;9.514;2022-11-15T14:09:49;11.63;;;8.40;;
36423;SDS011;22458;45.328;9.514;2022-11-15T14:12:23;10.23;;;8.23;;
36423;SDS011;22458;45.328;9.514;2022-11-15T14:14:49;11.25;;;8.43;;
36423;SDS011;22458;45.328;9.514;2022-11-15T14:17:48;10.32;;;8.18;;
36423;SDS011;22458;45.328;9.514;2022-11-15T14:23:19;11.73;;;8.50;;
36423;SDS011;22458;45.328;9.514;2022-11-15T14:25:56;11.38;;;9.15;;
36423;SDS011;22458;45.328;9.514;2022-11-15T14:30:49;9.90;;;8.05;;
36423;SDS011;22458;45.328;9.514;2022-11-15T14:35:48;11.23;;;8.35;;
36423;SDS011;22458;45.328;9.514;2022-11-15T14:38:14;10.13;;;8.27;;
36423;SDS011;22458;45.328;9.514;2022-11-15T14:40:40;10.00;;;8.38;;
36423;SDS011;22458;45.328;9.514;2022-11-15T14:43:11;12.43;;;9.98;;
36423;SDS011;22458;45.328;9.514;2022-11-15T14:45:37;11.93;;;9.68;;
36423;SDS011;22458;45.328;9.514;2022-11-15T14:48:03;9.45;;;7.93;;
36423;SDS011;22458;45.328;9.514;2022-11-15T14:50:30;12.75;;;9.68;;
36423;SDS011;22458;45.328;9.514;2022-11-15T14:52:58;10.63;;;8.70;;
36423;SDS011;22458;45.328;9.514;2022-11-15T14:55:25;11.57;;;8.75;;
36423;SDS011;22458;45.328;9.514;2022-11-15T14:57:56;10.30;;;8.70;;
36423;SDS011;22458;45.328;9.514;2022-11-15T15:00:25;10.75;;;8.68;;
36423;SDS011;22458;45.328;9.514;2022-11-15T15:02:52;11.10;;;8.68;;
36423;SDS011;22458;45.328;9.514;2022-11-15T15:05:32;9.73;;;7.68;;
36423;SDS011;22458;45.328;9.514;2022-11-15T15:08:00;11.10;;;8.05;;
36423;SDS011;22458;45.328;9.514;2022-11-15T15:10:27;10.18;;;8.07;;
36423;SDS011;22458;45.328;9.514;2022-11-15T15:12:57;10.52;;;7.90;;
36423;SDS011;22458;45.328;9.514;2022-11-15T15:15:32;11.48;;;8.00;;
36423;SDS011;22458;45.328;9.514;2022-11-15T15:18:02;9.73;;;7.50;;
36423;SDS011;22458;45.328;9.514;2022-11-15T15:20:30;10.30;;;7.68;;
36423;SDS011;22458;45.328;9.514;2022-11-15T15:22:57;11.05;;;8.68;;
36423;SDS011;22458;45.328;9.514;2022-11-15T15:25:27;11.02;;;7.68;;
36423;SDS011;22458;45.328;9.514;2022-11-15T15:27:55;12.43;;;8.63;;
36423;SDS011;22458;45.328;9.514;2022-11-15T15:30:22;9.98;;;7.57;;
36423;SDS011;22458;45.328;9.514;2022-11-15T15:32:48;9.90;;;7.93;;
36423;SDS011;22458;45.328;9.514;2022-11-15T15:35:15;10.10;;;7.88;;
36423;SDS011;22458;45.328;9.514;2022-11-15T15:37:42;9.82;;;7.85;;
36423;SDS011;22458;45.328;9.514;2022-11-15T15:40:22;10.88;;;8.23;;
36423;SDS011;22458;45.328;9.514;2022-11-15T15:45:14;12.20;;;7.93;;
36423;SDS011;22458;45.328;9.514;2022-11-15T15:47:41;14.25;;;9.07;;
36423;SDS011;22458;45.328;9.514;2022-11-15T15:50:18;10.38;;;7.75;;
36423;SDS011;22458;45.328;9.514;2022-11-15T15:52:48;11.82;;;8.23;;
36423;SDS011;22458;45.328;9.514;2022-11-15T15:55:15;11.95;;;8.45;;
36423;SDS011;22458;45.328;9.514;2022-11-15T15:57:41;13.45;;;8.95;;
36423;SDS011;22458;45.328;9.514;2022-11-15T16:00:07;11.43;;;7.70;;
36423;SDS011;22458;45.328;9.514;2022-11-15T16:02:43;11.02;;;8.07;;
36423;SDS011;22458;45.328;9.514;2022-11-15T16:05:09;10.13;;;8.18;;
36423;SDS011;22458;45.328;9.514;2022-11-15T16:07:35;12.02;;;8.15;;
36423;SDS011;22458;45.328;9.514;2022-11-15T16:10:04;11.25;;;7.93;;
36423;SDS011;22458;45.328;9.514;2022-11-15T16:12:41;9.57;;;7.35;;
36423;SDS011;22458;45.328;9.514;2022-11-15T16:15:07;10.32;;;7.53;;
36423;SDS011;22458;45.328;9.514;2022-11-15T16:17:34;8.23;;;6.50;;
36423;SDS011;22458;45.328;9.514;2022-11-15T16:20:03;8.63;;;7.70;;
36423;SDS011;22458;45.328;9.514;2022-11-15T16:22:29;11.13;;;7.30;;
36423;SDS011;22458;45.328;9.514;2022-11-15T16:24:55;10.35;;;7.32;;
36423;SDS011;22458;45.328;9.514;2022-11-15T16:27:21;8.70;;;6.75;;
36423;SDS011;22458;45.328;9.514;2022-11-15T16:29:47;8.32;;;6.47;;
36423;SDS011;22458;45.328;9.514;2022-11-15T16:32:14;11.77;;;7.95;;
36423;SDS011;22458;45.328;9.514;2022-11-15T16:34:40;9.32;;;7.10;;
36423;SDS011;22458;45.328;9.514;2022-11-15T16:37:08;8.65;;;7.03;;
36423;SDS011;22458;45.328;9.514;2022-11-15T16:39:46;8.88;;;6.57;;
36423;SDS011;22458;45.328;9.514;2022-11-15T16:42:12;9.85;;;7.20;;
36423;SDS011;22458;45.328;9.514;2022-11-15T16:44:37;8.88;;;7.38;;
36423;SDS011;22458;45.328;9.514;2022-11-15T16:47:03;9.40;;;7.28;;
36423;SDS011;22458;45.328;9.514;2022-11-15T16:49:29;10.35;;;6.50;;
36423;SDS011;22458;45.328;9.514;2022-11-15T16:51:55;10.05;;;8.05;;
36423;SDS011;22458;45.328;9.514;2022-11-15T16:54:20;8.35;;;7.00;;
36423;SDS011;22458;45.328;9.514;2022-11-15T16:56:46;9.02;;;7.50;;
36423;SDS011;22458;45.328;9.514;2022-11-15T16:59:15;9.10;;;7.13;;
36423;SDS011;22458;45.328;9.514;2022-11-15T17:01:59;8.95;;;6.95;;
36423;SDS011;22458;45.328;9.514;2022-11-15T17:04:25;9.30;;;6.38;;
36423;SDS011;22458;45.328;9.514;2022-11-15T17:06:56;9.00;;;7.13;;
36423;SDS011;22458;45.328;9.514;2022-11-15T17:09:22;10.35;;;6.95;;
36423;SDS011;22458;45.328;9.514;2022-11-15T17:11:48;9.52;;;7.53;;
36423;SDS011;22458;45.328;9.514;2022-11-15T17:14:14;10.70;;;7.57;;
36423;SDS011;22458;45.328;9.514;2022-11-15T17:16:41;9.60;;;7.07;;
36423;SDS011;22458;45.328;9.514;2022-11-15T17:19:18;8.73;;;7.13;;
36423;SDS011;22458;45.328;9.514;2022-11-15T17:21:46;10.07;;;7.65;;
36423;SDS011;22458;45.328;9.514;2022-11-15T17:24:15;10.18;;;6.95;;
36423;SDS011;22458;45.328;9.514;2022-11-15T17:26:41;9.98;;;7.45;;
36423;SDS011;22458;45.328;9.514;2022-11-15T17:29:07;9.18;;;7.15;;
36423;SDS011;22458;45.328;9.514;2022-11-15T17:31:36;8.90;;;6.53;;
36423;SDS011;22458;45.328;9.514;2022-11-15T17:34:03;11.15;;;7.35;;
36423;SDS011;22458;45.328;9.514;2022-11-15T17:36:30;12.32;;;6.85;;
36423;SDS011;22458;45.328;9.514;2022-11-15T17:38:55;8.63;;;7.25;;
36423;SDS011;22458;45.328;9.514;2022-11-15T17:41:21;9.15;;;7.35;;
36423;SDS011;22458;45.328;9.514;2022-11-15T17:43:47;8.52;;;7.20;;
36423;SDS011;22458;45.328;9.514;2022-11-15T17:46:17;9.43;;;7.20;;
36423;SDS011;22458;45.328;9.514;2022-11-15T17:48:45;9.27;;;7.10;;
36423;SDS011;22458;45.328;9.514;2022-11-15T17:51:13;8.93;;;7.15;;
36423;SDS011;22458;45.328;9.514;2022-11-15T17:53:42;8.95;;;7.03;;